sensor_id;sensor_type;location;lat;lon;timestamp;P1;durP1;ratioP1;P2;durP2;ratioP2
12433;SDS011;6281;49.038;8.372;2022-12-29T00:01:26;3.03;;;1.27;;
12433;SDS011;6281;49.038;8.372;2022-12-29T00:03:53;1.67;;;1.27;;
12433;SDS011;6281;49.038;8.372;2022-12-29T00:06:20;3.10;;;1.00;;
12433;SDS011;6281;49.038;8.372;2022-12-29T00:08:46;2.13;;;0.87;;
12433;SDS011;6281;49.038;8.372;2022-12-29T00:11:14;1.47;;;1.30;;
12433;SDS011;6281;49.038;8.372;2022-12-29T00:13:44;4.13;;;1.20;;
12433;SDS011;6281;49.038;8.372;2022-12-29T00:16:28;3.83;;;1.40;;
12433;SDS011;6281;49.038;8.372;2022-12-29T00:18:56;1.20;;;1.10;;
12433;SDS011;6281;49.038;8.372;2022-12-29T00:21:23;3.10;;;1.37;;
12433;SDS011;6281;49.038;8.372;2022-12-29T00:24:09;3.20;;;1.40;;
12433;SDS011;6281;49.038;8.372;2022-12-29T00:27:11;3.00;;;1.00;;
12433;SDS011;6281;49.038;8.372;2022-12-29T00:29:58;1.63;;;1.20;;
12433;SDS011;6281;49.038;8.372;2022-12-29T00:32:42;1.97;;;0.97;;
12433;SDS011;6281;49.038;8.372;2022-12-29T00:35:27;1.37;;;0.93;;
12433;SDS011;6281;49.038;8.372;2022-12-29T00:37:56;1.67;;;1.00;;
12433;SDS011;6281;49.038;8.372;2022-12-29T00:40:39;1.57;;;1.00;;
12433;SDS011;6281;49.038;8.372;2022-12-29T00:43:23;2.37;;;1.17;;
12433;SDS011;6281;49.038;8.372;2022-12-29T00:46:09;3.13;;;1.30;;
12433;SDS011;6281;49.038;8.372;2022-12-29T00:48:35;2.10;;;1.23;;
12433;SDS011;6281;49.038;8.372;2022-12-29T00:51:20;3.77;;;1.23;;
12433;SDS011;6281;49.038;8.372;2022-12-29T00:53:46;1.80;;;1.40;;
12433;SDS011;6281;49.038;8.372;2022-12-29T00:56:13;1.87;;;1.20;;
12433;SDS011;6281;49.038;8.372;2022-12-29T00:58:40;1.87;;;1.33;;
12433;SDS011;6281;49.038;8.372;2022-12-29T01:01:08;2.67;;;1.30;;
12433;SDS011;6281;49.038;8.372;2022-12-29T01:03:36;1.73;;;1.00;;
12433;SDS011;6281;49.038;8.372;2022-12-29T01:06:05;2.13;;;1.00;;
12433;SDS011;6281;49.038;8.372;2022-12-29T01:08:34;3.27;;;1.30;;
12433;SDS011;6281;49.038;8.372;2022-12-29T01:11:01;1.83;;;1.07;;
12433;SDS011;6281;49.038;8.372;2022-12-29T01:13:29;3.47;;;1.60;;
12433;SDS011;6281;49.038;8.372;2022-12-29T01:15:56;4.13;;;1.40;;
12433;SDS011;6281;49.038;8.372;2022-12-29T01:18:25;2.90;;;1.40;;
12433;SDS011;6281;49.038;8.372;2022-12-29T01:20:57;3.77;;;1.47;;
12433;SDS011;6281;49.038;8.372;2022-12-29T01:23:24;3.07;;;1.07;;
12433;SDS011;6281;49.038;8.372;2022-12-29T01:25:51;1.93;;;1.20;;
12433;SDS011;6281;49.038;8.372;2022-12-29T01:28:18;3.33;;;1.30;;
12433;SDS011;6281;49.038;8.372;2022-12-29T01:30:45;3.53;;;1.33;;
12433;SDS011;6281;49.038;8.372;2022-12-29T01:33:11;1.80;;;1.37;;
12433;SDS011;6281;49.038;8.372;2022-12-29T01:35:39;4.23;;;1.47;;
12433;SDS011;6281;49.038;8.372;2022-12-29T01:38:06;2.37;;;1.40;;
12433;SDS011;6281;49.038;8.372;2022-12-29T01:40:33;3.50;;;1.70;;
12433;SDS011;6281;49.038;8.372;2022-12-29T01:43:08;5.17;;;1.70;;
12433;SDS011;6281;49.038;8.372;2022-12-29T01:45:38;3.30;;;1.47;;
12433;SDS011;6281;49.038;8.372;2022-12-29T01:48:10;7.20;;;1.40;;
12433;SDS011;6281;49.038;8.372;2022-12-29T01:50:39;2.20;;;1.23;;
12433;SDS011;6281;49.038;8.372;2022-12-29T01:53:11;2.97;;;1.43;;
12433;SDS011;6281;49.038;8.372;2022-12-29T01:55:42;3.17;;;1.30;;
12433;SDS011;6281;49.038;8.372;2022-12-29T01:58:12;2.93;;;1.37;;
12433;SDS011;6281;49.038;8.372;2022-12-29T02:00:40;2.43;;;1.20;;
12433;SDS011;6281;49.038;8.372;2022-12-29T02:03:07;2.50;;;1.23;;
12433;SDS011;6281;49.038;8.372;2022-12-29T02:05:36;2.23;;;1.10;;
12433;SDS011;6281;49.038;8.372;2022-12-29T02:08:08;2.13;;;1.40;;
12433;SDS011;6281;49.038;8.372;2022-12-29T02:10:35;2.30;;;1.20;;
12433;SDS011;6281;49.038;8.372;2022-12-29T02:13:03;2.73;;;1.50;;
12433;SDS011;6281;49.038;8.372;2022-12-29T02:15:33;3.10;;;1.30;;
12433;SDS011;6281;49.038;8.372;2022-12-29T02:18:09;2.00;;;1.30;;
12433;SDS011;6281;49.038;8.372;2022-12-29T02:21:01;1.17;;;1.00;;
12433;SDS011;6281;49.038;8.372;2022-12-29T02:26:47;4.77;;;1.50;;
12433;SDS011;6281;49.038;8.372;2022-12-29T02:32:30;2.87;;;1.30;;
12433;SDS011;6281;49.038;8.372;2022-12-29T02:35:05;3.07;;;1.33;;
12433;SDS011;6281;49.038;8.372;2022-12-29T02:37:41;2.43;;;1.20;;
12433;SDS011;6281;49.038;8.372;2022-12-29T02:40:16;1.53;;;1.13;;
12433;SDS011;6281;49.038;8.372;2022-12-29T02:42:49;1.77;;;1.10;;
12433;SDS011;6281;49.038;8.372;2022-12-29T02:45:20;2.80;;;1.27;;
12433;SDS011;6281;49.038;8.372;2022-12-29T02:47:59;2.50;;;1.10;;
12433;SDS011;6281;49.038;8.372;2022-12-29T02:50:31;2.37;;;1.40;;
12433;SDS011;6281;49.038;8.372;2022-12-29T02:53:02;2.63;;;1.73;;
12433;SDS011;6281;49.038;8.372;2022-12-29T02:55:32;2.53;;;1.10;;
12433;SDS011;6281;49.038;8.372;2022-12-29T02:58:08;1.30;;;1.20;;
12433;SDS011;6281;49.038;8.372;2022-12-29T03:00:47;2.27;;;1.37;;
12433;SDS011;6281;49.038;8.372;2022-12-29T03:03:29;1.83;;;1.23;;
12433;SDS011;6281;49.038;8.372;2022-12-29T03:06:10;2.60;;;1.40;;
12433;SDS011;6281;49.038;8.372;2022-12-29T03:08:48;1.60;;;1.00;;
12433;SDS011;6281;49.038;8.372;2022-12-29T03:11:19;2.27;;;1.00;;
12433;SDS011;6281;49.038;8.372;2022-12-29T03:14:06;1.53;;;1.30;;
12433;SDS011;6281;49.038;8.372;2022-12-29T03:16:58;3.60;;;1.23;;
12433;SDS011;6281;49.038;8.372;2022-12-29T03:19:31;2.17;;;0.90;;
12433;SDS011;6281;49.038;8.372;2022-12-29T03:22:01;2.00;;;1.10;;
12433;SDS011;6281;49.038;8.372;2022-12-29T03:24:49;0.80;;;0.70;;
12433;SDS011;6281;49.038;8.372;2022-12-29T03:27:19;1.50;;;0.80;;
12433;SDS011;6281;49.038;8.372;2022-12-29T03:29:50;2.13;;;1.20;;
12433;SDS011;6281;49.038;8.372;2022-12-29T03:32:20;0.90;;;0.80;;
12433;SDS011;6281;49.038;8.372;2022-12-29T03:35:00;1.30;;;1.00;;
12433;SDS011;6281;49.038;8.372;2022-12-29T03:37:28;1.50;;;0.90;;
12433;SDS011;6281;49.038;8.372;2022-12-29T03:40:00;1.70;;;0.90;;
12433;SDS011;6281;49.038;8.372;2022-12-29T03:42:28;1.57;;;0.70;;
12433;SDS011;6281;49.038;8.372;2022-12-29T03:44:58;1.13;;;0.90;;
12433;SDS011;6281;49.038;8.372;2022-12-29T03:47:25;2.13;;;1.03;;
12433;SDS011;6281;49.038;8.372;2022-12-29T03:49:52;3.30;;;1.47;;
12433;SDS011;6281;49.038;8.372;2022-12-29T03:52:20;1.80;;;0.90;;
12433;SDS011;6281;49.038;8.372;2022-12-29T03:54:47;1.60;;;1.00;;
12433;SDS011;6281;49.038;8.372;2022-12-29T03:57:14;4.60;;;1.20;;
12433;SDS011;6281;49.038;8.372;2022-12-29T03:59:40;2.00;;;1.10;;
12433;SDS011;6281;49.038;8.372;2022-12-29T04:02:07;3.80;;;1.40;;
12433;SDS011;6281;49.038;8.372;2022-12-29T04:04:34;2.23;;;1.20;;
12433;SDS011;6281;49.038;8.372;2022-12-29T04:07:00;1.83;;;0.80;;
12433;SDS011;6281;49.038;8.372;2022-12-29T04:09:29;1.87;;;1.00;;
12433;SDS011;6281;49.038;8.372;2022-12-29T04:11:56;1.13;;;0.90;;
12433;SDS011;6281;49.038;8.372;2022-12-29T04:14:23;1.87;;;1.10;;
12433;SDS011;6281;49.038;8.372;2022-12-29T04:16:50;1.00;;;0.90;;
12433;SDS011;6281;49.038;8.372;2022-12-29T04:19:17;2.73;;;1.27;;
12433;SDS011;6281;49.038;8.372;2022-12-29T04:21:43;1.80;;;1.10;;
12433;SDS011;6281;49.038;8.372;2022-12-29T04:24:10;2.90;;;1.00;;
12433;SDS011;6281;49.038;8.372;2022-12-29T04:26:39;1.57;;;0.90;;
12433;SDS011;6281;49.038;8.372;2022-12-29T04:29:06;2.07;;;1.23;;
12433;SDS011;6281;49.038;8.372;2022-12-29T04:31:33;1.73;;;1.20;;
12433;SDS011;6281;49.038;8.372;2022-12-29T04:34:00;2.03;;;0.87;;
12433;SDS011;6281;49.038;8.372;2022-12-29T04:36:27;1.93;;;1.10;;
12433;SDS011;6281;49.038;8.372;2022-12-29T04:38:54;2.83;;;1.03;;
12433;SDS011;6281;49.038;8.372;2022-12-29T04:41:21;2.13;;;1.00;;
12433;SDS011;6281;49.038;8.372;2022-12-29T04:43:49;2.83;;;0.90;;
12433;SDS011;6281;49.038;8.372;2022-12-29T04:46:16;1.40;;;1.07;;
12433;SDS011;6281;49.038;8.372;2022-12-29T04:48:43;1.23;;;1.10;;
12433;SDS011;6281;49.038;8.372;2022-12-29T04:51:10;2.17;;;0.97;;
12433;SDS011;6281;49.038;8.372;2022-12-29T04:53:36;2.53;;;1.20;;
12433;SDS011;6281;49.038;8.372;2022-12-29T04:56:04;2.60;;;1.30;;
12433;SDS011;6281;49.038;8.372;2022-12-29T04:58:31;1.57;;;0.87;;
12433;SDS011;6281;49.038;8.372;2022-12-29T05:00:59;1.90;;;1.10;;
12433;SDS011;6281;49.038;8.372;2022-12-29T05:03:26;1.87;;;1.00;;
12433;SDS011;6281;49.038;8.372;2022-12-29T05:05:53;1.40;;;1.10;;
12433;SDS011;6281;49.038;8.372;2022-12-29T05:08:21;3.07;;;1.20;;
12433;SDS011;6281;49.038;8.372;2022-12-29T05:10:49;2.00;;;1.30;;
12433;SDS011;6281;49.038;8.372;2022-12-29T05:13:17;2.10;;;1.30;;
12433;SDS011;6281;49.038;8.372;2022-12-29T05:15:45;3.67;;;1.20;;
12433;SDS011;6281;49.038;8.372;2022-12-29T05:18:15;1.30;;;0.73;;
12433;SDS011;6281;49.038;8.372;2022-12-29T05:20:42;2.43;;;1.17;;
12433;SDS011;6281;49.038;8.372;2022-12-29T05:23:09;2.60;;;1.20;;
12433;SDS011;6281;49.038;8.372;2022-12-29T05:25:36;1.77;;;1.37;;
12433;SDS011;6281;49.038;8.372;2022-12-29T05:28:03;2.13;;;1.30;;
12433;SDS011;6281;49.038;8.372;2022-12-29T05:30:30;1.50;;;1.10;;
12433;SDS011;6281;49.038;8.372;2022-12-29T05:32:57;1.40;;;1.17;;
12433;SDS011;6281;49.038;8.372;2022-12-29T05:35:25;2.27;;;1.30;;
12433;SDS011;6281;49.038;8.372;2022-12-29T05:37:52;4.00;;;1.37;;
12433;SDS011;6281;49.038;8.372;2022-12-29T05:40:19;2.87;;;1.80;;
12433;SDS011;6281;49.038;8.372;2022-12-29T05:42:45;4.43;;;1.53;;
12433;SDS011;6281;49.038;8.372;2022-12-29T05:45:12;3.67;;;1.63;;
12433;SDS011;6281;49.038;8.372;2022-12-29T05:47:39;3.20;;;1.30;;
12433;SDS011;6281;49.038;8.372;2022-12-29T05:50:06;2.63;;;1.47;;
12433;SDS011;6281;49.038;8.372;2022-12-29T05:52:35;2.53;;;1.30;;
12433;SDS011;6281;49.038;8.372;2022-12-29T05:55:02;2.67;;;1.37;;
12433;SDS011;6281;49.038;8.372;2022-12-29T05:57:30;2.23;;;1.10;;
12433;SDS011;6281;49.038;8.372;2022-12-29T05:59:57;1.93;;;1.37;;
12433;SDS011;6281;49.038;8.372;2022-12-29T06:02:23;2.60;;;1.40;;
12433;SDS011;6281;49.038;8.372;2022-12-29T06:04:50;3.30;;;1.30;;
12433;SDS011;6281;49.038;8.372;2022-12-29T06:07:17;2.97;;;1.57;;
12433;SDS011;6281;49.038;8.372;2022-12-29T06:09:46;3.53;;;1.83;;
12433;SDS011;6281;49.038;8.372;2022-12-29T06:12:13;4.43;;;1.20;;
12433;SDS011;6281;49.038;8.372;2022-12-29T06:14:40;2.27;;;1.30;;
12433;SDS011;6281;49.038;8.372;2022-12-29T06:17:06;2.27;;;1.53;;
12433;SDS011;6281;49.038;8.372;2022-12-29T06:19:33;2.57;;;1.60;;
12433;SDS011;6281;49.038;8.372;2022-12-29T06:22:00;1.67;;;1.00;;
12433;SDS011;6281;49.038;8.372;2022-12-29T06:24:27;2.97;;;1.87;;
12433;SDS011;6281;49.038;8.372;2022-12-29T06:26:56;2.23;;;1.43;;
12433;SDS011;6281;49.038;8.372;2022-12-29T06:29:23;2.63;;;1.20;;
12433;SDS011;6281;49.038;8.372;2022-12-29T06:31:50;2.13;;;1.10;;
12433;SDS011;6281;49.038;8.372;2022-12-29T06:34:21;2.60;;;1.33;;
12433;SDS011;6281;49.038;8.372;2022-12-29T06:36:48;3.23;;;1.07;;
12433;SDS011;6281;49.038;8.372;2022-12-29T06:39:14;4.17;;;1.80;;
12433;SDS011;6281;49.038;8.372;2022-12-29T06:41:41;2.67;;;1.40;;
12433;SDS011;6281;49.038;8.372;2022-12-29T06:44:10;2.80;;;1.40;;
12433;SDS011;6281;49.038;8.372;2022-12-29T06:46:37;1.57;;;1.00;;
12433;SDS011;6281;49.038;8.372;2022-12-29T06:49:04;1.77;;;1.47;;
12433;SDS011;6281;49.038;8.372;2022-12-29T06:51:30;2.87;;;1.67;;
12433;SDS011;6281;49.038;8.372;2022-12-29T06:53:57;3.73;;;1.40;;
12433;SDS011;6281;49.038;8.372;2022-12-29T06:56:24;2.53;;;1.60;;
12433;SDS011;6281;49.038;8.372;2022-12-29T06:58:51;1.50;;;1.20;;
12433;SDS011;6281;49.038;8.372;2022-12-29T07:01:19;4.00;;;1.50;;
12433;SDS011;6281;49.038;8.372;2022-12-29T07:03:46;1.90;;;1.30;;
12433;SDS011;6281;49.038;8.372;2022-12-29T07:06:13;2.13;;;1.13;;
12433;SDS011;6281;49.038;8.372;2022-12-29T07:08:40;2.37;;;1.63;;
12433;SDS011;6281;49.038;8.372;2022-12-29T07:11:07;1.67;;;1.00;;
12433;SDS011;6281;49.038;8.372;2022-12-29T07:13:34;1.70;;;1.30;;
12433;SDS011;6281;49.038;8.372;2022-12-29T07:16:04;1.50;;;1.33;;
12433;SDS011;6281;49.038;8.372;2022-12-29T07:18:33;1.00;;;0.83;;
12433;SDS011;6281;49.038;8.372;2022-12-29T07:21:00;3.27;;;1.97;;
12433;SDS011;6281;49.038;8.372;2022-12-29T07:23:28;6.17;;;1.50;;
12433;SDS011;6281;49.038;8.372;2022-12-29T07:25:58;1.40;;;0.97;;
12433;SDS011;6281;49.038;8.372;2022-12-29T07:28:26;2.77;;;1.33;;
12433;SDS011;6281;49.038;8.372;2022-12-29T07:30:53;2.60;;;1.47;;
12433;SDS011;6281;49.038;8.372;2022-12-29T07:33:20;1.80;;;1.40;;
12433;SDS011;6281;49.038;8.372;2022-12-29T07:35:48;1.93;;;1.20;;
12433;SDS011;6281;49.038;8.372;2022-12-29T07:38:15;2.53;;;1.43;;
12433;SDS011;6281;49.038;8.372;2022-12-29T07:40:42;1.50;;;1.30;;
12433;SDS011;6281;49.038;8.372;2022-12-29T07:43:09;3.43;;;1.50;;
12433;SDS011;6281;49.038;8.372;2022-12-29T07:45:36;2.97;;;1.40;;
12433;SDS011;6281;49.038;8.372;2022-12-29T07:48:03;2.20;;;1.23;;
12433;SDS011;6281;49.038;8.372;2022-12-29T07:50:32;1.53;;;1.30;;
12433;SDS011;6281;49.038;8.372;2022-12-29T07:53:00;5.77;;;1.43;;
12433;SDS011;6281;49.038;8.372;2022-12-29T07:55:28;1.80;;;1.60;;
12433;SDS011;6281;49.038;8.372;2022-12-29T07:57:55;2.63;;;1.43;;
12433;SDS011;6281;49.038;8.372;2022-12-29T08:00:22;2.97;;;1.70;;
12433;SDS011;6281;49.038;8.372;2022-12-29T08:02:51;2.17;;;1.40;;
12433;SDS011;6281;49.038;8.372;2022-12-29T08:05:18;1.70;;;1.27;;
12433;SDS011;6281;49.038;8.372;2022-12-29T08:07:45;2.40;;;1.13;;
12433;SDS011;6281;49.038;8.372;2022-12-29T08:10:14;1.70;;;1.30;;
12433;SDS011;6281;49.038;8.372;2022-12-29T08:12:42;2.57;;;1.20;;
12433;SDS011;6281;49.038;8.372;2022-12-29T08:15:10;1.63;;;1.20;;
12433;SDS011;6281;49.038;8.372;2022-12-29T08:17:37;1.63;;;0.90;;
12433;SDS011;6281;49.038;8.372;2022-12-29T08:20:05;2.70;;;1.23;;
12433;SDS011;6281;49.038;8.372;2022-12-29T08:22:32;1.20;;;1.10;;
12433;SDS011;6281;49.038;8.372;2022-12-29T08:24:59;2.33;;;1.50;;
12433;SDS011;6281;49.038;8.372;2022-12-29T08:27:28;2.93;;;1.30;;
12433;SDS011;6281;49.038;8.372;2022-12-29T08:29:55;3.30;;;1.50;;
12433;SDS011;6281;49.038;8.372;2022-12-29T08:32:21;3.27;;;1.53;;
12433;SDS011;6281;49.038;8.372;2022-12-29T08:34:48;4.20;;;1.73;;
12433;SDS011;6281;49.038;8.372;2022-12-29T08:37:15;1.80;;;1.20;;
12433;SDS011;6281;49.038;8.372;2022-12-29T08:39:42;5.80;;;1.57;;
12433;SDS011;6281;49.038;8.372;2022-12-29T08:42:09;2.73;;;1.57;;
12433;SDS011;6281;49.038;8.372;2022-12-29T08:44:37;5.30;;;1.50;;
12433;SDS011;6281;49.038;8.372;2022-12-29T08:47:04;4.10;;;1.47;;
12433;SDS011;6281;49.038;8.372;2022-12-29T08:49:31;2.97;;;1.50;;
12433;SDS011;6281;49.038;8.372;2022-12-29T08:51:58;1.83;;;1.53;;
12433;SDS011;6281;49.038;8.372;2022-12-29T08:54:25;3.37;;;1.53;;
12433;SDS011;6281;49.038;8.372;2022-12-29T08:56:52;2.30;;;1.20;;
12433;SDS011;6281;49.038;8.372;2022-12-29T08:59:19;3.73;;;1.30;;
12433;SDS011;6281;49.038;8.372;2022-12-29T09:01:48;2.90;;;1.47;;
12433;SDS011;6281;49.038;8.372;2022-12-29T09:04:14;3.50;;;1.27;;
12433;SDS011;6281;49.038;8.372;2022-12-29T09:06:42;4.50;;;1.70;;
12433;SDS011;6281;49.038;8.372;2022-12-29T09:09:09;1.53;;;1.20;;
12433;SDS011;6281;49.038;8.372;2022-12-29T09:11:36;2.13;;;1.50;;
12433;SDS011;6281;49.038;8.372;2022-12-29T09:14:03;3.50;;;1.37;;
12433;SDS011;6281;49.038;8.372;2022-12-29T09:16:30;4.17;;;1.37;;
12433;SDS011;6281;49.038;8.372;2022-12-29T09:18:58;2.40;;;1.10;;
12433;SDS011;6281;49.038;8.372;2022-12-29T09:21:26;2.63;;;1.30;;
12433;SDS011;6281;49.038;8.372;2022-12-29T09:23:53;5.33;;;1.80;;
12433;SDS011;6281;49.038;8.372;2022-12-29T09:26:19;2.30;;;1.20;;
12433;SDS011;6281;49.038;8.372;2022-12-29T09:28:46;2.07;;;1.27;;
12433;SDS011;6281;49.038;8.372;2022-12-29T09:31:13;0.70;;;0.70;;
12433;SDS011;6281;49.038;8.372;2022-12-29T09:33:40;3.80;;;1.47;;
12433;SDS011;6281;49.038;8.372;2022-12-29T09:36:09;1.90;;;1.53;;
12433;SDS011;6281;49.038;8.372;2022-12-29T09:38:36;2.90;;;1.67;;
12433;SDS011;6281;49.038;8.372;2022-12-29T09:41:05;3.80;;;1.23;;
12433;SDS011;6281;49.038;8.372;2022-12-29T09:43:43;2.27;;;1.53;;
12433;SDS011;6281;49.038;8.372;2022-12-29T09:46:35;2.43;;;1.47;;
12433;SDS011;6281;49.038;8.372;2022-12-29T09:49:07;1.30;;;1.00;;
12433;SDS011;6281;49.038;8.372;2022-12-29T09:51:41;2.20;;;1.10;;
12433;SDS011;6281;49.038;8.372;2022-12-29T09:54:19;2.63;;;1.10;;
12433;SDS011;6281;49.038;8.372;2022-12-29T09:56:50;2.77;;;1.83;;
12433;SDS011;6281;49.038;8.372;2022-12-29T09:59:19;2.47;;;1.33;;
12433;SDS011;6281;49.038;8.372;2022-12-29T10:01:51;1.57;;;1.33;;
12433;SDS011;6281;49.038;8.372;2022-12-29T10:04:25;2.30;;;1.17;;
12433;SDS011;6281;49.038;8.372;2022-12-29T10:06:56;3.67;;;1.50;;
12433;SDS011;6281;49.038;8.372;2022-12-29T10:09:30;2.33;;;1.50;;
12433;SDS011;6281;49.038;8.372;2022-12-29T10:12:02;2.73;;;1.40;;
12433;SDS011;6281;49.038;8.372;2022-12-29T10:14:46;2.50;;;1.37;;
12433;SDS011;6281;49.038;8.372;2022-12-29T10:17:23;1.50;;;1.23;;
12433;SDS011;6281;49.038;8.372;2022-12-29T10:20:03;2.20;;;1.57;;
12433;SDS011;6281;49.038;8.372;2022-12-29T10:22:49;2.23;;;1.50;;
12433;SDS011;6281;49.038;8.372;2022-12-29T10:25:28;3.27;;;1.40;;
12433;SDS011;6281;49.038;8.372;2022-12-29T10:27:59;2.53;;;1.30;;
12433;SDS011;6281;49.038;8.372;2022-12-29T10:30:29;2.00;;;1.60;;
12433;SDS011;6281;49.038;8.372;2022-12-29T10:33:01;4.57;;;1.80;;
12433;SDS011;6281;49.038;8.372;2022-12-29T10:35:32;2.47;;;1.40;;
12433;SDS011;6281;49.038;8.372;2022-12-29T10:38:03;2.80;;;1.47;;
12433;SDS011;6281;49.038;8.372;2022-12-29T10:40:40;6.30;;;2.00;;
12433;SDS011;6281;49.038;8.372;2022-12-29T10:43:12;2.63;;;1.70;;
12433;SDS011;6281;49.038;8.372;2022-12-29T10:45:50;2.83;;;1.50;;
12433;SDS011;6281;49.038;8.372;2022-12-29T10:48:19;2.07;;;1.50;;
12433;SDS011;6281;49.038;8.372;2022-12-29T10:50:48;3.33;;;1.70;;
12433;SDS011;6281;49.038;8.372;2022-12-29T10:53:19;3.23;;;1.80;;
12433;SDS011;6281;49.038;8.372;2022-12-29T10:55:49;4.13;;;1.87;;
12433;SDS011;6281;49.038;8.372;2022-12-29T10:58:16;3.90;;;1.90;;
12433;SDS011;6281;49.038;8.372;2022-12-29T11:00:47;1.63;;;1.30;;
12433;SDS011;6281;49.038;8.372;2022-12-29T11:03:39;3.33;;;1.80;;
12433;SDS011;6281;49.038;8.372;2022-12-29T11:06:15;2.27;;;1.83;;
12433;SDS011;6281;49.038;8.372;2022-12-29T11:08:50;2.40;;;1.60;;
12433;SDS011;6281;49.038;8.372;2022-12-29T11:11:22;2.87;;;1.30;;
12433;SDS011;6281;49.038;8.372;2022-12-29T11:13:55;2.43;;;1.70;;
12433;SDS011;6281;49.038;8.372;2022-12-29T11:16:27;2.93;;;1.57;;
12433;SDS011;6281;49.038;8.372;2022-12-29T11:18:57;4.03;;;1.83;;
12433;SDS011;6281;49.038;8.372;2022-12-29T11:21:30;3.17;;;1.37;;
12433;SDS011;6281;49.038;8.372;2022-12-29T11:24:00;3.93;;;1.93;;
12433;SDS011;6281;49.038;8.372;2022-12-29T11:26:28;2.33;;;1.50;;
12433;SDS011;6281;49.038;8.372;2022-12-29T11:31:49;1.43;;;1.33;;
12433;SDS011;6281;49.038;8.372;2022-12-29T11:34:18;1.43;;;1.30;;
12433;SDS011;6281;49.038;8.372;2022-12-29T11:36:46;1.97;;;1.37;;
12433;SDS011;6281;49.038;8.372;2022-12-29T11:39:28;2.70;;;1.60;;
12433;SDS011;6281;49.038;8.372;2022-12-29T11:41:58;2.40;;;1.40;;
12433;SDS011;6281;49.038;8.372;2022-12-29T11:44:27;1.37;;;1.27;;
12433;SDS011;6281;49.038;8.372;2022-12-29T11:47:01;3.80;;;1.20;;
12433;SDS011;6281;49.038;8.372;2022-12-29T11:49:28;2.57;;;1.20;;
12433;SDS011;6281;49.038;8.372;2022-12-29T11:51:55;2.50;;;1.17;;
12433;SDS011;6281;49.038;8.372;2022-12-29T11:54:23;3.20;;;1.47;;
12433;SDS011;6281;49.038;8.372;2022-12-29T11:56:53;3.10;;;1.23;;
12433;SDS011;6281;49.038;8.372;2022-12-29T11:59:21;3.67;;;1.60;;
12433;SDS011;6281;49.038;8.372;2022-12-29T12:02:03;4.90;;;1.40;;
12433;SDS011;6281;49.038;8.372;2022-12-29T12:04:53;2.20;;;1.00;;
12433;SDS011;6281;49.038;8.372;2022-12-29T12:07:28;1.40;;;1.20;;
12433;SDS011;6281;49.038;8.372;2022-12-29T12:10:04;1.67;;;1.20;;
12433;SDS011;6281;49.038;8.372;2022-12-29T12:12:39;2.03;;;1.23;;
12433;SDS011;6281;49.038;8.372;2022-12-29T12:15:13;3.33;;;1.20;;
12433;SDS011;6281;49.038;8.372;2022-12-29T12:17:45;4.27;;;1.40;;
12433;SDS011;6281;49.038;8.372;2022-12-29T12:20:17;1.27;;;1.07;;
12433;SDS011;6281;49.038;8.372;2022-12-29T12:22:50;0.80;;;0.80;;
12433;SDS011;6281;49.038;8.372;2022-12-29T12:25:21;1.10;;;0.83;;
12433;SDS011;6281;49.038;8.372;2022-12-29T12:27:56;4.00;;;0.80;;
12433;SDS011;6281;49.038;8.372;2022-12-29T12:30:26;1.07;;;0.57;;
12433;SDS011;6281;49.038;8.372;2022-12-29T12:32:58;1.50;;;0.80;;
12433;SDS011;6281;49.038;8.372;2022-12-29T12:35:31;3.03;;;1.20;;
12433;SDS011;6281;49.038;8.372;2022-12-29T12:38:06;1.47;;;0.70;;
12433;SDS011;6281;49.038;8.372;2022-12-29T12:40:56;1.60;;;0.60;;
12433;SDS011;6281;49.038;8.372;2022-12-29T12:43:32;1.33;;;0.77;;
12433;SDS011;6281;49.038;8.372;2022-12-29T12:46:10;1.70;;;0.90;;
12433;SDS011;6281;49.038;8.372;2022-12-29T12:48:56;1.83;;;0.67;;
12433;SDS011;6281;49.038;8.372;2022-12-29T12:51:42;3.10;;;1.03;;
12433;SDS011;6281;49.038;8.372;2022-12-29T12:54:17;1.43;;;0.70;;
12433;SDS011;6281;49.038;8.372;2022-12-29T12:57:08;1.13;;;0.80;;
12433;SDS011;6281;49.038;8.372;2022-12-29T12:59:51;1.73;;;0.97;;
12433;SDS011;6281;49.038;8.372;2022-12-29T13:02:29;1.47;;;1.00;;
12433;SDS011;6281;49.038;8.372;2022-12-29T13:05:25;1.00;;;0.80;;
12433;SDS011;6281;49.038;8.372;2022-12-29T13:08:09;5.50;;;1.27;;
12433;SDS011;6281;49.038;8.372;2022-12-29T13:10:50;2.63;;;1.30;;
12433;SDS011;6281;49.038;8.372;2022-12-29T13:16:23;1.30;;;0.90;;
12433;SDS011;6281;49.038;8.372;2022-12-29T13:18:57;1.77;;;0.83;;
12433;SDS011;6281;49.038;8.372;2022-12-29T13:21:31;1.77;;;0.93;;
12433;SDS011;6281;49.038;8.372;2022-12-29T13:24:11;1.10;;;1.00;;
12433;SDS011;6281;49.038;8.372;2022-12-29T13:26:44;2.27;;;1.20;;
12433;SDS011;6281;49.038;8.372;2022-12-29T13:29:17;2.37;;;1.20;;
12433;SDS011;6281;49.038;8.372;2022-12-29T13:31:52;1.47;;;0.90;;
12433;SDS011;6281;49.038;8.372;2022-12-29T13:34:32;2.37;;;1.60;;
12433;SDS011;6281;49.038;8.372;2022-12-29T13:37:08;1.47;;;1.00;;
12433;SDS011;6281;49.038;8.372;2022-12-29T13:39:39;2.47;;;0.80;;
12433;SDS011;6281;49.038;8.372;2022-12-29T13:42:08;2.10;;;0.83;;
12433;SDS011;6281;49.038;8.372;2022-12-29T13:44:38;2.07;;;0.83;;
12433;SDS011;6281;49.038;8.372;2022-12-29T13:47:15;1.93;;;0.50;;
12433;SDS011;6281;49.038;8.372;2022-12-29T13:49:51;1.20;;;0.70;;
12433;SDS011;6281;49.038;8.372;2022-12-29T13:52:21;0.80;;;0.50;;
12433;SDS011;6281;49.038;8.372;2022-12-29T13:54:56;1.80;;;0.80;;
12433;SDS011;6281;49.038;8.372;2022-12-29T13:57:31;0.97;;;0.70;;
12433;SDS011;6281;49.038;8.372;2022-12-29T14:00:11;1.67;;;0.60;;
12433;SDS011;6281;49.038;8.372;2022-12-29T14:02:46;1.40;;;0.50;;
12433;SDS011;6281;49.038;8.372;2022-12-29T14:05:27;4.47;;;0.60;;
12433;SDS011;6281;49.038;8.372;2022-12-29T14:07:59;1.07;;;0.60;;
12433;SDS011;6281;49.038;8.372;2022-12-29T14:10:27;0.90;;;0.70;;
12433;SDS011;6281;49.038;8.372;2022-12-29T14:12:59;1.87;;;0.90;;
12433;SDS011;6281;49.038;8.372;2022-12-29T14:15:30;0.73;;;0.50;;
12433;SDS011;6281;49.038;8.372;2022-12-29T14:18:03;0.70;;;0.50;;
12433;SDS011;6281;49.038;8.372;2022-12-29T14:20:36;2.30;;;0.90;;
12433;SDS011;6281;49.038;8.372;2022-12-29T14:23:15;1.57;;;0.90;;
12433;SDS011;6281;49.038;8.372;2022-12-29T14:25:52;1.40;;;0.80;;
12433;SDS011;6281;49.038;8.372;2022-12-29T14:28:37;1.60;;;0.80;;
12433;SDS011;6281;49.038;8.372;2022-12-29T14:31:05;1.53;;;0.50;;
12433;SDS011;6281;49.038;8.372;2022-12-29T14:36:52;1.27;;;0.40;;
12433;SDS011;6281;49.038;8.372;2022-12-29T14:39:36;2.13;;;0.70;;
12433;SDS011;6281;49.038;8.372;2022-12-29T14:42:06;2.83;;;0.80;;
12433;SDS011;6281;49.038;8.372;2022-12-29T14:44:45;2.53;;;0.60;;
12433;SDS011;6281;49.038;8.372;2022-12-29T14:47:16;4.73;;;0.80;;
12433;SDS011;6281;49.038;8.372;2022-12-29T14:49:47;1.03;;;0.60;;
12433;SDS011;6281;49.038;8.372;2022-12-29T14:52:16;1.60;;;0.70;;
12433;SDS011;6281;49.038;8.372;2022-12-29T14:54:49;3.30;;;0.70;;
12433;SDS011;6281;49.038;8.372;2022-12-29T14:57:22;3.43;;;0.80;;
12433;SDS011;6281;49.038;8.372;2022-12-29T15:00:16;3.20;;;0.63;;
12433;SDS011;6281;49.038;8.372;2022-12-29T15:02:47;2.50;;;0.60;;
12433;SDS011;6281;49.038;8.372;2022-12-29T15:05:22;1.07;;;0.60;;
12433;SDS011;6281;49.038;8.372;2022-12-29T15:07:54;2.27;;;0.90;;
12433;SDS011;6281;49.038;8.372;2022-12-29T15:10:22;1.40;;;0.70;;
12433;SDS011;6281;49.038;8.372;2022-12-29T15:12:51;3.40;;;1.00;;
12433;SDS011;6281;49.038;8.372;2022-12-29T15:15:20;3.63;;;0.80;;
12433;SDS011;6281;49.038;8.372;2022-12-29T15:17:49;4.40;;;0.90;;
12433;SDS011;6281;49.038;8.372;2022-12-29T15:20:20;2.90;;;1.07;;
12433;SDS011;6281;49.038;8.372;2022-12-29T15:22:52;2.60;;;0.90;;
12433;SDS011;6281;49.038;8.372;2022-12-29T15:25:22;3.17;;;1.33;;
12433;SDS011;6281;49.038;8.372;2022-12-29T15:27:50;2.03;;;0.90;;
12433;SDS011;6281;49.038;8.372;2022-12-29T15:30:18;3.20;;;1.30;;
12433;SDS011;6281;49.038;8.372;2022-12-29T15:32:46;2.60;;;1.40;;
12433;SDS011;6281;49.038;8.372;2022-12-29T15:37:59;6.27;;;1.00;;
12433;SDS011;6281;49.038;8.372;2022-12-29T15:40:38;3.03;;;1.17;;
12433;SDS011;6281;49.038;8.372;2022-12-29T15:43:09;2.33;;;1.40;;